createdAt,value
2022-08-25T00:00:11.617Z,100095.61
2022-08-25T00:02:55.272Z,100095.61
2022-08-25T00:05:15.073Z,100087.86
2022-08-25T00:07:46.953Z,100087.86
2022-08-25T00:10:17.632Z,100090.45
2022-08-25T00:12:48.541Z,100090.45
2022-08-25T00:15:19.060Z,100083.67
2022-08-25T00:17:51.116Z,100083.67
2022-08-25T00:20:22.017Z,100086.86
2022-08-25T00:22:52.723Z,100088.47
2022-08-25T00:25:23.354Z,100088.55
2022-08-25T00:27:53.898Z,100093.02
2022-08-25T00:30:24.581Z,100093.42
2022-08-25T00:32:58.131Z,100088.90
2022-08-25T00:35:28.565Z,100088.90
2022-08-25T00:37:59.356Z,100093.02
2022-08-25T00:40:30.377Z,100088.30
2022-08-25T00:43:01.080Z,100091.09
2022-08-25T00:45:31.923Z,100091.80
2022-08-25T00:48:02.713Z,100091.80
2022-08-25T00:50:35.810Z,100092.71
2022-08-25T00:53:08.601Z,100097.66
2022-08-25T00:55:41.155Z,100088.14
2022-08-25T00:58:22.677Z,100089.97
2022-08-25T01:00:56.656Z,100089.97
2022-08-25T01:03:33.191Z,100087.12
2022-08-25T01:06:04.765Z,100087.12
2022-08-25T01:08:35.630Z,100091.98
2022-08-25T01:11:09.818Z,100084.16
2022-08-25T01:13:45.900Z,100081.27
2022-08-25T01:16:17.560Z,100081.17
2022-08-25T01:18:51.183Z,100069.81
2022-08-25T01:21:24.805Z,100069.81
2022-08-25T01:23:57.421Z,100082.34
2022-08-25T01:26:31.252Z,100074.35
2022-08-25T01:29:04.150Z,100074.35
2022-08-25T01:31:36.720Z,100079.58
2022-08-25T01:34:08.361Z,100079.58
2022-08-25T01:36:40.658Z,100072.63
2022-08-25T01:39:12.852Z,100072.63
2022-08-25T01:42:05.719Z,100080.48
2022-08-25T01:44:39.737Z,100080.48
2022-08-25T01:47:10.489Z,100085.64
2022-08-25T01:49:42.002Z,100083.61
2022-08-25T01:52:27.558Z,100083.61
2022-08-25T01:54:58.527Z,100084.50
2022-08-25T01:57:31.164Z,100074.80
2022-08-25T02:00:01.765Z,100076.20
2022-08-25T02:02:32.972Z,100086.00
2022-08-25T02:05:03.673Z,100075.53
2022-08-25T02:07:35.792Z,100075.53
2022-08-25T02:10:08.541Z,100076.89
2022-08-25T02:12:39.598Z,100076.89
2022-08-25T02:15:13.032Z,100080.13
2022-08-25T02:17:43.376Z,100077.48
2022-08-25T02:20:13.915Z,100077.48
2022-08-25T02:22:56.681Z,100078.18
2022-08-25T02:25:17.934Z,100083.94
2022-08-25T02:27:48.606Z,100081.30
2022-08-25T02:30:19.111Z,100081.30
2022-08-25T02:32:49.909Z,100079.69
2022-08-25T02:35:20.513Z,100078.04
2022-08-25T02:37:54.562Z,100085.11
2022-08-25T02:40:25.423Z,100088.25
2022-08-25T02:42:56.323Z,100080.50
2022-08-25T02:45:26.922Z,100088.73
2022-08-25T02:47:57.556Z,100087.39
2022-08-25T02:50:28.423Z,100092.08
2022-08-25T02:52:58.961Z,100086.33
2022-08-25T02:55:29.935Z,100091.10
2022-08-25T02:58:02.242Z,100091.16
2022-08-25T03:00:33.322Z,100091.16
2022-08-25T03:03:05.574Z,100086.35
2022-08-25T03:05:36.250Z,100085.77
2022-08-25T03:08:07.836Z,100086.84
2022-08-25T03:10:38.319Z,100086.84
2022-08-25T03:13:09.220Z,100099.95
2022-08-25T03:15:40.179Z,100093.37
2022-08-25T03:18:14.026Z,100105.86
2022-08-25T03:20:44.895Z,100121.36
2022-08-25T03:23:15.321Z,100109.42
2022-08-25T03:25:45.851Z,100109.42
2022-08-25T03:28:17.020Z,100109.08
2022-08-25T03:30:47.524Z,100116.95
2022-08-25T03:33:19.794Z,100116.95
2022-08-25T03:35:50.268Z,100112.66
2022-08-25T03:38:20.688Z,100113.49
2022-08-25T03:40:51.210Z,100113.49
2022-08-25T03:43:24.177Z,100112.69
2022-08-25T03:45:54.779Z,100112.69
2022-08-25T03:48:25.216Z,100116.02
2022-08-25T03:50:55.554Z,100115.91
2022-08-25T03:53:25.898Z,100100.41
2022-08-25T03:55:57.960Z,100123.81
2022-08-25T03:58:28.801Z,100123.81
2022-08-25T04:00:59.313Z,100107.69
2022-08-25T04:03:29.755Z,100123.50
2022-08-25T04:06:05.854Z,100123.50
2022-08-25T04:08:38.500Z,100113.95
2022-08-25T04:11:11.956Z,100112.56
2022-08-25T04:13:45.071Z,100112.56
2022-08-25T04:16:18.063Z,100119.14
2022-08-25T04:18:49.783Z,100118.23
2022-08-25T04:21:21.406Z,100117.08
2022-08-25T04:23:54.040Z,100123.31
2022-08-25T04:26:33.021Z,100123.31
2022-08-25T04:29:06.130Z,100128.60
2022-08-25T04:31:39.574Z,100115.98
2022-08-25T04:34:30.689Z,100115.98
2022-08-25T04:36:43.478Z,100112.41
2022-08-25T04:39:14.762Z,100118.06
2022-08-25T04:41:45.329Z,100118.06
2022-08-25T04:44:15.733Z,100113.44
2022-08-25T04:46:46.214Z,100113.75
2022-08-25T04:49:16.769Z,100104.52
2022-08-25T04:51:47.651Z,100104.52
2022-08-25T04:54:18.704Z,100111.84
2022-08-25T04:56:54.134Z,100106.61
2022-08-25T04:59:23.585Z,100109.29
2022-08-25T05:01:56.326Z,100104.33
2022-08-25T05:04:28.417Z,100104.33
2022-08-25T05:06:59.931Z,100103.14
2022-08-25T05:09:32.450Z,100109.21
2022-08-25T05:12:04.297Z,100103.36
2022-08-25T05:14:36.011Z,100104.57
2022-08-25T05:17:06.609Z,100104.57
2022-08-25T05:19:37.108Z,100097.87
2022-08-25T05:22:07.610Z,100102.48
2022-08-25T05:24:38.110Z,100104.17
2022-08-25T05:27:08.581Z,100104.17
2022-08-25T05:29:40.050Z,100103.50
2022-08-25T05:32:10.823Z,100101.99
2022-08-25T05:34:41.577Z,100101.66
2022-08-25T05:37:12.342Z,100101.66
2022-08-25T05:39:42.782Z,100099.53
2022-08-25T05:42:13.230Z,100100.08
2022-08-25T05:44:43.767Z,100101.80
2022-08-25T05:47:14.270Z,100098.06
2022-08-25T05:49:44.634Z,100100.58
2022-08-25T05:52:18.143Z,100100.22
2022-08-25T05:54:47.039Z,100116.64
2022-08-25T05:57:17.785Z,100116.64
2022-08-25T05:59:48.250Z,100106.35
2022-08-25T06:02:18.819Z,100115.77
2022-08-25T06:04:49.373Z,100116.55
2022-08-25T06:07:19.828Z,100110.54
2022-08-25T06:09:50.287Z,100111.47
2022-08-25T06:12:20.800Z,100113.56
2022-08-25T06:14:51.988Z,100117.77
2022-08-25T06:17:22.539Z,100117.78
2022-08-25T06:19:54.054Z,100117.78
2022-08-25T06:22:24.415Z,100120.95
2022-08-25T06:24:55.788Z,100120.95
2022-08-25T06:27:26.134Z,100119.08
2022-08-25T06:29:56.976Z,100136.80
2022-08-25T06:32:39.804Z,100117.94
2022-08-25T06:35:14.638Z,100119.23
2022-08-25T06:37:45.355Z,100119.67
2022-08-25T06:40:16.677Z,100128.47
2022-08-25T06:42:48.924Z,100128.47
2022-08-25T06:45:19.705Z,100122.67
2022-08-25T06:47:50.386Z,100122.29
2022-08-25T06:50:20.875Z,100122.29
2022-08-25T06:52:51.215Z,100127.22
2022-08-25T06:55:21.709Z,100113.23
2022-08-25T06:57:53.598Z,100113.23
2022-08-25T07:00:30.412Z,100121.36
2022-08-25T07:03:00.681Z,100112.92
2022-08-25T07:05:43.626Z,100115.17
2022-08-25T07:08:04.779Z,100115.48
2022-08-25T07:10:35.419Z,100102.70
2022-08-25T07:13:07.351Z,100110.35
2022-08-25T07:15:42.498Z,100110.35
2022-08-25T07:18:14.756Z,100112.08
2022-08-25T07:20:47.394Z,100099.91
2022-08-25T07:23:18.989Z,100097.65
2022-08-25T07:25:49.963Z,100097.65
2022-08-25T07:28:22.163Z,100099.89
2022-08-25T07:30:53.189Z,100085.82
2022-08-25T07:33:24.560Z,100086.14
2022-08-25T07:35:55.211Z,100088.86
2022-08-25T07:38:27.624Z,100083.30
2022-08-25T07:41:05.389Z,100077.45
2022-08-25T07:43:36.091Z,100091.28
2022-08-25T07:46:07.689Z,100064.18
2022-08-25T07:48:38.634Z,100096.34
2022-08-25T07:51:14.252Z,100053.23
2022-08-25T07:53:45.170Z,100048.59
2022-08-25T07:56:18.270Z,100056.87
2022-08-25T07:58:49.667Z,100054.31
2022-08-25T08:01:23.878Z,100047.78
2022-08-25T08:03:59.297Z,100047.78
2022-08-25T08:06:33.661Z,100041.65
2022-08-25T08:09:07.741Z,100041.65
2022-08-25T08:11:41.475Z,100032.22
2022-08-25T08:14:12.264Z,100056.58
2022-08-25T08:16:42.653Z,100027.75
2022-08-25T08:19:14.108Z,100027.75
2022-08-25T08:21:46.689Z,100031.27
2022-08-25T08:24:40.853Z,100036.57
2022-08-25T08:26:58.649Z,100036.57
2022-08-25T08:29:21.629Z,100025.69
2022-08-25T08:31:56.688Z,100025.31
2022-08-25T08:34:27.614Z,100034.81
2022-08-25T08:37:18.759Z,100021.05
2022-08-25T08:39:53.291Z,100021.05
2022-08-25T08:42:38.306Z,100003.75
2022-08-25T08:45:24.031Z,100041.02
2022-08-25T08:48:09.188Z,100012.05
2022-08-25T08:50:49.644Z,100009.15
2022-08-25T08:53:26.942Z,100016.72
2022-08-25T08:56:02.329Z,100014.98
2022-08-25T08:58:52.237Z,100011.05
2022-08-25T09:01:52.519Z,100011.05
2022-08-25T09:04:39.066Z,99998.73
2022-08-25T09:07:13.634Z,99998.89
2022-08-25T09:09:47.653Z,99999.24
2022-08-25T09:12:49.067Z,100009.84
2022-08-25T09:15:28.112Z,100009.84
2022-08-25T09:18:15.027Z,100019.75
2022-08-25T09:21:14.436Z,100004.39
2022-08-25T09:24:06.941Z,99998.60
2022-08-25T09:26:45.916Z,99985.44
2022-08-25T09:29:22.367Z,99985.44
2022-08-25T09:31:55.446Z,99995.38
2022-08-25T09:34:28.863Z,99979.73
2022-08-25T09:37:00.475Z,99979.73
2022-08-25T09:39:31.465Z,99984.67
2022-08-25T09:42:01.962Z,99988.39
2022-08-25T09:44:36.347Z,99998.67
2022-08-25T09:47:15.973Z,99994.33
2022-08-25T09:49:50.925Z,99983.63
2022-08-25T09:52:32.652Z,99972.20
2022-08-25T09:55:24.137Z,99972.07
2022-08-25T09:57:57.455Z,99972.07
2022-08-25T10:00:33.265Z,99971.54
2022-08-25T10:03:27.160Z,99971.54
2022-08-25T10:06:03.553Z,99982.34
2022-08-25T10:08:51.122Z,99980.01
2022-08-25T10:11:33.359Z,99980.01
2022-08-25T10:14:24.849Z,99969.83
2022-08-25T10:16:58.300Z,99969.83
2022-08-25T10:19:30.257Z,99966.77
2022-08-25T10:22:24.309Z,99965.55
2022-08-25T10:24:54.644Z,99965.55
2022-08-25T10:27:40.116Z,99976.72
2022-08-25T10:30:30.155Z,99976.83
2022-08-25T10:33:19.871Z,99972.48
2022-08-25T10:36:21.894Z,99963.83
2022-08-25T10:38:55.414Z,99963.02
2022-08-25T10:41:28.614Z,99961.67
2022-08-25T10:44:24.592Z,99961.67
2022-08-25T10:47:17.470Z,99955.09
2022-08-25T10:49:51.085Z,99956.78
2022-08-25T10:52:25.029Z,99949.45
2022-08-25T10:55:07.329Z,99949.45
2022-08-25T10:57:59.798Z,99940.23
2022-08-25T11:03:37.420Z,99926.59
2022-08-25T11:06:16.572Z,99921.02
2022-08-25T11:08:57.017Z,99920.67
2022-08-25T11:11:30.338Z,99920.67
2022-08-25T11:14:14.540Z,99918.98
2022-08-25T11:17:02.681Z,99918.98
2022-08-25T11:19:39.361Z,99906.48
2022-08-25T11:22:29.318Z,99912.48
2022-08-25T11:25:24.018Z,99912.48
2022-08-25T11:28:17.817Z,99915.17
2022-08-25T11:30:52.060Z,99915.17
2022-08-25T11:33:24.866Z,99897.02
2022-08-25T11:36:00.985Z,99897.02
2022-08-25T11:38:43.635Z,99897.45
2022-08-25T11:41:30.429Z,99903.16
2022-08-25T11:44:06.303Z,99892.00
2022-08-25T11:46:52.942Z,99899.06
2022-08-25T11:49:38.214Z,99899.06
2022-08-25T11:52:30.720Z,99895.00
2022-08-25T11:55:12.741Z,99895.00
2022-08-25T11:57:45.970Z,99902.66
2022-08-25T12:00:37.583Z,99895.20
2022-08-25T12:03:36.521Z,99895.20
2022-08-25T12:06:25.414Z,99891.14
2022-08-25T12:09:01.462Z,99891.14
2022-08-25T12:11:50.367Z,99885.93
2022-08-25T12:14:28.235Z,99890.69
2022-08-25T12:17:01.896Z,99896.45
2022-08-25T12:19:56.373Z,99885.02
2022-08-25T12:22:32.432Z,99893.54
2022-08-25T12:25:08.378Z,99885.70
2022-08-25T12:30:29.129Z,99875.93
2022-08-25T12:33:14.474Z,99858.47
2022-08-25T12:36:05.091Z,99868.77
2022-08-25T12:38:52.423Z,99859.84
2022-08-25T12:41:31.033Z,99870.41
2022-08-25T12:44:35.502Z,99844.73
2022-08-25T12:47:28.503Z,99866.06
2022-08-25T12:53:21.786Z,99857.33
2022-08-25T12:56:06.980Z,99856.56
2022-08-25T12:59:00.417Z,99856.56
2022-08-25T13:01:32.889Z,99857.09
2022-08-25T13:04:21.613Z,99853.15
2022-08-25T13:07:23.759Z,99853.89
2022-08-25T13:10:25.418Z,99856.80
2022-08-25T13:13:16.640Z,99848.14
2022-08-25T13:15:54.917Z,99857.03
2022-08-25T13:18:25.390Z,99860.31
2022-08-25T13:21:07.696Z,99855.22
2022-08-25T13:23:40.891Z,99856.39
2022-08-25T13:26:14.243Z,99859.30
2022-08-25T13:28:50.282Z,99856.13
2022-08-25T13:31:21.920Z,99856.13
2022-08-25T13:34:01.417Z,99854.67
2022-08-25T13:36:37.758Z,99854.81
2022-08-25T13:39:38.984Z,99854.81
2022-08-25T13:41:55.444Z,99849.80
2022-08-25T13:44:28.853Z,99849.80
2022-08-25T13:47:29.594Z,99845.87
2022-08-25T13:50:18.284Z,99845.87
2022-08-25T13:53:02.425Z,99845.65
2022-08-25T13:55:51.727Z,99845.65
2022-08-25T13:58:24.181Z,99849.12
2022-08-25T14:01:49.019Z,99849.12
2022-08-25T14:04:26.786Z,99837.80
2022-08-25T14:07:20.441Z,99837.80
2022-08-25T14:09:54.218Z,99841.73
2022-08-25T14:12:29.659Z,99812.20
2022-08-25T14:15:02.990Z,99838.23
2022-08-25T14:17:40.190Z,99829.12
2022-08-25T14:20:08.725Z,99829.12
2022-08-25T14:22:42.140Z,99835.28
2022-08-25T14:25:12.458Z,99835.28
2022-08-25T14:28:06.480Z,99829.27
2022-08-25T14:30:17.083Z,99834.25
2022-08-25T14:32:51.035Z,99825.98
2022-08-25T14:35:23.526Z,99830.95
2022-08-25T14:37:54.783Z,99833.70
2022-08-25T14:40:25.418Z,99832.37
2022-08-25T14:42:56.385Z,99824.33
2022-08-25T14:45:27.529Z,99823.73
2022-08-25T14:48:02.238Z,99819.53
2022-08-25T14:50:36.504Z,99819.53
2022-08-25T14:53:07.068Z,99817.09
2022-08-25T14:55:42.237Z,99825.02
2022-08-25T14:58:13.476Z,99831.83
2022-08-25T15:00:45.633Z,99826.66
2022-08-25T15:03:20.688Z,99825.09
2022-08-25T15:05:54.492Z,99830.09
2022-08-25T15:08:25.022Z,99830.09
2022-08-25T15:10:57.258Z,99830.15
2022-08-25T15:13:29.658Z,99829.55
2022-08-25T15:16:00.739Z,99831.43
2022-08-25T15:18:32.979Z,99831.43
2022-08-25T15:21:06.515Z,99828.47
2022-08-25T15:23:38.134Z,99828.47
2022-08-25T15:26:12.630Z,99817.75
2022-08-25T15:28:52.382Z,99824.17
2022-08-25T15:31:23.737Z,99819.29
2022-08-25T15:33:54.576Z,99816.88
2022-08-25T15:36:25.948Z,99826.68
2022-08-25T15:39:02.936Z,99824.31
2022-08-25T15:41:36.286Z,99824.09
2022-08-25T15:44:08.911Z,99824.09
2022-08-25T15:46:49.696Z,99821.66
2022-08-25T15:49:20.446Z,99812.08
2022-08-25T15:51:55.410Z,99810.22
2022-08-25T15:54:27.586Z,99810.22
2022-08-25T15:56:59.795Z,99812.36
2022-08-25T15:59:31.321Z,99803.06
2022-08-25T16:02:04.467Z,99803.06
2022-08-25T16:04:36.817Z,99801.19
2022-08-25T16:07:07.464Z,99802.30
2022-08-25T16:09:39.366Z,99802.30
2022-08-25T16:12:12.109Z,99801.53
2022-08-25T16:14:42.573Z,99800.95
2022-08-25T16:17:14.731Z,99800.95
2022-08-25T16:19:47.085Z,99802.20
2022-08-25T16:22:18.087Z,99802.20
2022-08-25T16:24:49.195Z,99796.27
2022-08-25T16:27:19.981Z,99798.56
2022-08-25T16:29:50.643Z,99800.11
2022-08-25T16:32:23.935Z,99802.63
2022-08-25T16:34:54.292Z,99797.47
2022-08-25T16:37:24.968Z,99800.67
2022-08-25T16:39:57.525Z,99797.16
2022-08-25T16:42:28.110Z,99795.55
2022-08-25T16:44:59.226Z,99795.55
2022-08-25T16:47:29.910Z,99792.25
2022-08-25T16:50:00.791Z,99792.25
2022-08-25T16:52:33.337Z,99786.36
2022-08-25T16:55:03.827Z,99782.45
2022-08-25T16:57:35.469Z,99778.13
2022-08-25T17:00:09.457Z,99778.13
2022-08-25T17:02:41.055Z,99774.11
2022-08-25T17:05:12.303Z,99773.98
2022-08-25T17:07:44.571Z,99775.83
2022-08-25T17:10:16.368Z,99766.89
2022-08-25T17:12:47.970Z,99766.89
2022-08-25T17:15:19.112Z,99772.06
2022-08-25T17:17:52.270Z,99772.06
2022-08-25T17:20:23.202Z,99771.55
2022-08-25T17:22:53.910Z,99762.86
2022-08-25T17:25:24.555Z,99762.86
2022-08-25T17:27:56.723Z,99769.98
2022-08-25T17:30:29.170Z,99769.34
2022-08-25T17:33:00.099Z,99764.21
2022-08-25T17:35:32.587Z,99761.18
2022-08-25T17:38:04.219Z,99756.25
2022-08-25T17:40:37.403Z,99756.25
2022-08-25T17:43:08.946Z,99763.21
2022-08-25T17:45:41.004Z,99758.92
2022-08-25T17:48:12.071Z,99760.83
2022-08-25T17:50:43.409Z,99761.69
2022-08-25T17:53:14.662Z,99761.69
2022-08-25T17:55:48.259Z,99764.47
2022-08-25T17:58:18.627Z,99760.90
2022-08-25T18:00:51.413Z,99760.90
2022-08-25T18:03:22.732Z,99751.82
2022-08-25T18:05:54.385Z,99749.41
2022-08-25T18:08:29.226Z,99752.11
2022-08-25T18:11:00.203Z,99748.44
2022-08-25T18:13:31.144Z,99750.39
2022-08-25T18:16:01.699Z,99750.39
2022-08-25T18:18:33.400Z,99745.23
2022-08-25T18:21:06.817Z,99745.23
2022-08-25T18:23:38.327Z,99743.91
2022-08-25T18:26:09.309Z,99743.91
2022-08-25T18:28:43.823Z,99741.80
2022-08-25T18:31:20.011Z,99739.12
2022-08-25T18:33:51.095Z,99742.87
2022-08-25T18:36:22.183Z,99738.23
2022-08-25T18:38:57.783Z,99735.27
2022-08-25T18:41:29.727Z,99735.27
2022-08-25T18:44:00.536Z,99736.94
2022-08-25T18:46:31.267Z,99736.94
2022-08-25T18:49:02.273Z,99734.89
2022-08-25T18:51:33.485Z,99735.03
2022-08-25T18:54:04.996Z,99729.89
2022-08-25T18:56:36.156Z,99729.89
2022-08-25T18:59:07.117Z,99718.03
2022-08-25T19:01:40.713Z,99708.76
2022-08-25T19:04:11.184Z,99708.76
2022-08-25T19:06:44.247Z,99715.22
2022-08-25T19:09:15.909Z,99720.27
2022-08-25T19:11:48.055Z,99720.27
2022-08-25T19:14:19.343Z,99713.59
2022-08-25T19:16:54.135Z,99710.24
2022-08-25T19:19:25.105Z,99714.61
2022-08-25T19:21:55.867Z,99719.05
2022-08-25T19:24:28.903Z,99721.02
2022-08-25T19:27:01.833Z,99714.91
2022-08-25T19:29:34.821Z,99707.70
2022-08-25T19:32:06.280Z,99707.70
2022-08-25T19:34:39.947Z,99710.09
2022-08-25T19:37:13.767Z,99701.69
2022-08-25T19:39:52.863Z,99701.69
2022-08-25T19:42:37.101Z,99703.34
2022-08-25T19:44:59.241Z,99703.34
2022-08-25T19:47:30.488Z,99701.54
2022-08-25T19:50:02.558Z,99709.45
2022-08-25T19:52:33.581Z,99710.13
2022-08-25T19:55:05.003Z,99708.08
2022-08-25T19:57:42.913Z,99709.09
2022-08-25T20:00:12.634Z,99709.09
2022-08-25T20:02:44.490Z,99711.91
2022-08-25T20:05:15.775Z,99704.00
2022-08-25T20:07:47.910Z,99707.18
2022-08-25T20:10:20.035Z,99712.61
2022-08-25T20:12:50.626Z,99712.61
2022-08-25T20:15:22.274Z,99703.87
2022-08-25T20:17:56.674Z,99707.48
2022-08-25T20:20:32.477Z,99707.48
2022-08-25T20:23:01.437Z,99701.13
2022-08-25T20:25:36.807Z,99707.97
2022-08-25T20:28:04.930Z,99707.97
2022-08-25T20:30:36.670Z,99700.96
2022-08-25T20:33:08.279Z,99697.89
2022-08-25T20:35:39.205Z,99697.89
2022-08-25T20:38:11.231Z,99694.78
2022-08-25T20:40:43.466Z,99694.78
2022-08-25T20:43:14.092Z,99691.34
2022-08-25T20:45:44.817Z,99692.57
2022-08-25T20:48:15.212Z,99687.98
2022-08-25T20:50:45.677Z,99687.98
2022-08-25T20:53:17.640Z,99686.55
2022-08-25T20:55:48.757Z,99681.77
2022-08-25T20:58:19.216Z,99681.77
2022-08-25T21:00:49.741Z,99688.43
2022-08-25T21:03:20.166Z,99688.43
2022-08-25T21:05:54.134Z,99688.17
2022-08-25T21:08:23.749Z,99685.52
2022-08-25T21:10:54.567Z,99685.11
2022-08-25T21:13:26.078Z,99681.45
2022-08-25T21:15:56.576Z,99685.30
2022-08-25T21:18:31.410Z,99685.30
2022-08-25T21:21:05.358Z,99681.87
2022-08-25T21:23:39.355Z,99681.87
2022-08-25T21:26:15.639Z,99682.36
2022-08-25T21:28:47.575Z,99684.23
2022-08-25T21:31:20.861Z,99682.97
2022-08-25T21:33:53.664Z,99680.00
2022-08-25T21:36:26.151Z,99680.00
2022-08-25T21:38:59.666Z,99682.63
2022-08-25T21:41:33.211Z,99675.45
2022-08-25T21:44:04.000Z,99675.45
2022-08-25T21:46:36.543Z,99677.88
2022-08-25T21:49:08.423Z,99685.39
2022-08-25T21:51:42.465Z,99685.39
2022-08-25T21:54:15.928Z,99677.34
2022-08-25T21:56:55.529Z,99674.55
2022-08-25T21:59:30.952Z,99677.23
2022-08-25T22:02:05.244Z,99671.56
2022-08-25T22:04:37.578Z,99675.11
2022-08-25T22:07:10.967Z,99675.11
2022-08-25T22:09:41.449Z,99673.83
2022-08-25T22:12:13.152Z,99665.95
2022-08-25T22:14:46.042Z,99670.54
2022-08-25T22:17:21.043Z,99670.54
2022-08-25T22:19:49.257Z,99680.38
2022-08-25T22:22:21.306Z,99680.38
2022-08-25T22:24:52.229Z,99668.96
2022-08-25T22:27:23.872Z,99671.95
2022-08-25T22:29:54.572Z,99671.95
2022-08-25T22:32:25.032Z,99681.22
2022-08-25T22:34:55.421Z,99664.65
2022-08-25T22:37:25.858Z,99675.88
2022-08-25T22:39:56.449Z,99676.80
2022-08-25T22:42:28.392Z,99661.59
2022-08-25T22:44:58.889Z,99674.28
2022-08-25T22:47:29.291Z,99674.28
2022-08-25T22:50:00.376Z,99668.24
2022-08-25T22:52:34.638Z,99668.24
2022-08-25T22:55:06.207Z,99665.80
2022-08-25T22:57:38.713Z,99665.80
2022-08-25T23:00:22.002Z,99658.00
2022-08-25T23:02:52.350Z,99656.14
2022-08-25T23:05:22.775Z,99656.14
2022-08-25T23:07:53.506Z,99662.68
2022-08-25T23:10:24.148Z,99655.39
2022-08-25T23:12:55.591Z,99657.91
2022-08-25T23:15:26.417Z,99657.91
2022-08-25T23:17:57.096Z,99657.97
2022-08-25T23:20:28.469Z,99650.30
2022-08-25T23:23:01.537Z,99650.05
2022-08-25T23:25:32.480Z,99650.05
2022-08-25T23:28:02.920Z,99657.41
2022-08-25T23:30:40.186Z,99656.65
2022-08-25T23:33:12.275Z,99656.65
2022-08-25T23:35:43.828Z,99650.47
2022-08-25T23:38:14.585Z,99654.44
2022-08-25T23:40:46.778Z,99651.60
2022-08-25T23:43:17.294Z,99651.60
2022-08-25T23:45:48.749Z,99651.16
2022-08-25T23:48:19.180Z,99647.62
2022-08-25T23:50:53.926Z,99645.61
2022-08-25T23:53:26.005Z,99645.61
2022-08-25T23:55:57.246Z,99639.11
2022-08-25T23:58:29.458Z,99648.45
